sensor_id;sensor_type;location;lat;lon;timestamp;temperature;humidity
35804;DHT22;21924;51.934;7.414;2023-01-29T00:01:19;0.00;99.90
35804;DHT22;21924;51.934;7.414;2023-01-29T00:04:03;-0.10;99.90
35804;DHT22;21924;51.934;7.414;2023-01-29T00:07:00;-0.10;99.90
35804;DHT22;21924;51.934;7.414;2023-01-29T00:09:46;-0.10;99.90
35804;DHT22;21924;51.934;7.414;2023-01-29T00:16:46;0.00;99.90
35804;DHT22;21924;51.934;7.414;2023-01-29T00:27:04;-0.10;99.90
35804;DHT22;21924;51.934;7.414;2023-01-29T00:37:10;-0.10;99.90
35804;DHT22;21924;51.934;7.414;2023-01-29T00:40:13;-0.10;99.90
35804;DHT22;21924;51.934;7.414;2023-01-29T00:43:00;-0.10;99.90
35804;DHT22;21924;51.934;7.414;2023-01-29T00:46:09;-0.10;99.90
35804;DHT22;21924;51.934;7.414;2023-01-29T00:48:53;-0.10;99.90
35804;DHT22;21924;51.934;7.414;2023-01-29T00:51:38;-0.10;99.90
35804;DHT22;21924;51.934;7.414;2023-01-29T00:54:22;-0.10;99.90
35804;DHT22;21924;51.934;7.414;2023-01-29T00:57:08;-0.10;99.90
35804;DHT22;21924;51.934;7.414;2023-01-29T00:59:53;-0.10;99.90
35804;DHT22;21924;51.934;7.414;2023-01-29T01:02:38;-0.10;99.90
35804;DHT22;21924;51.934;7.414;2023-01-29T01:05:41;-0.20;99.90
35804;DHT22;21924;51.934;7.414;2023-01-29T01:08:25;-0.10;99.90
35804;DHT22;21924;51.934;7.414;2023-01-29T01:11:28;-0.20;99.90
35804;DHT22;21924;51.934;7.414;2023-01-29T01:14:12;-0.10;99.90
35804;DHT22;21924;51.934;7.414;2023-01-29T01:16:58;-0.20;99.90
35804;DHT22;21924;51.934;7.414;2023-01-29T01:19:42;-0.20;99.90
35804;DHT22;21924;51.934;7.414;2023-01-29T01:22:28;-0.20;99.90
35804;DHT22;21924;51.934;7.414;2023-01-29T01:25:13;-0.20;99.90
35804;DHT22;21924;51.934;7.414;2023-01-29T01:27:58;-0.30;99.90
35804;DHT22;21924;51.934;7.414;2023-01-29T01:30:43;-0.30;99.90
35804;DHT22;21924;51.934;7.414;2023-01-29T01:33:27;-0.30;99.90
35804;DHT22;21924;51.934;7.414;2023-01-29T01:36:11;-0.30;99.90
35804;DHT22;21924;51.934;7.414;2023-01-29T01:38:57;-0.30;99.90
35804;DHT22;21924;51.934;7.414;2023-01-29T01:41:42;-0.30;99.90
35804;DHT22;21924;51.934;7.414;2023-01-29T01:44:59;-0.20;99.90
35804;DHT22;21924;51.934;7.414;2023-01-29T01:47:54;-0.20;99.90
35804;DHT22;21924;51.934;7.414;2023-01-29T01:53:39;-0.20;99.90
35804;DHT22;21924;51.934;7.414;2023-01-29T01:56:28;-0.20;99.90
35804;DHT22;21924;51.934;7.414;2023-01-29T01:59:22;-0.10;99.90
35804;DHT22;21924;51.934;7.414;2023-01-29T02:02:08;-0.10;99.90
35804;DHT22;21924;51.934;7.414;2023-01-29T02:05:13;-0.10;99.90
35804;DHT22;21924;51.934;7.414;2023-01-29T02:08:34;-0.10;99.90
35804;DHT22;21924;51.934;7.414;2023-01-29T02:11:41;-0.10;99.90
35804;DHT22;21924;51.934;7.414;2023-01-29T02:14:25;-0.10;99.90
35804;DHT22;21924;51.934;7.414;2023-01-29T02:17:15;-0.10;99.90
35804;DHT22;21924;51.934;7.414;2023-01-29T02:20:19;0.00;99.90
35804;DHT22;21924;51.934;7.414;2023-01-29T02:29:17;0.00;99.90
35804;DHT22;21924;51.934;7.414;2023-01-29T02:38:46;0.00;99.90
35804;DHT22;21924;51.934;7.414;2023-01-29T02:42:00;0.00;99.90
35804;DHT22;21924;51.934;7.414;2023-01-29T02:48:00;0.10;99.90
35804;DHT22;21924;51.934;7.414;2023-01-29T02:53:56;0.10;99.90
35804;DHT22;21924;51.934;7.414;2023-01-29T02:56:50;0.10;99.90
35804;DHT22;21924;51.934;7.414;2023-01-29T02:59:45;0.10;99.90
35804;DHT22;21924;51.934;7.414;2023-01-29T03:02:57;0.10;99.90
35804;DHT22;21924;51.934;7.414;2023-01-29T03:05:59;0.00;99.90
35804;DHT22;21924;51.934;7.414;2023-01-29T03:09:13;0.00;99.90
35804;DHT22;21924;51.934;7.414;2023-01-29T03:12:13;0.10;99.90
35804;DHT22;21924;51.934;7.414;2023-01-29T03:15:24;0.10;99.90
35804;DHT22;21924;51.934;7.414;2023-01-29T03:18:20;0.10;99.90
35804;DHT22;21924;51.934;7.414;2023-01-29T03:21:18;0.10;99.90
35804;DHT22;21924;51.934;7.414;2023-01-29T03:24:56;0.10;99.90
35804;DHT22;21924;51.934;7.414;2023-01-29T03:28:03;0.10;99.90
35804;DHT22;21924;51.934;7.414;2023-01-29T03:31:11;0.10;99.90
35804;DHT22;21924;51.934;7.414;2023-01-29T03:34:22;0.10;99.90
35804;DHT22;21924;51.934;7.414;2023-01-29T03:37:33;0.10;99.90
35804;DHT22;21924;51.934;7.414;2023-01-29T03:40:19;0.10;99.90
35804;DHT22;21924;51.934;7.414;2023-01-29T03:43:12;0.10;99.90
35804;DHT22;21924;51.934;7.414;2023-01-29T03:46:10;0.10;99.90
35804;DHT22;21924;51.934;7.414;2023-01-29T03:52:48;0.10;99.90
35804;DHT22;21924;51.934;7.414;2023-01-29T03:55:46;0.10;99.90
35804;DHT22;21924;51.934;7.414;2023-01-29T03:59:16;0.10;99.90
35804;DHT22;21924;51.934;7.414;2023-01-29T04:02:12;0.20;99.90
35804;DHT22;21924;51.934;7.414;2023-01-29T04:05:08;0.20;99.90
35804;DHT22;21924;51.934;7.414;2023-01-29T04:08:04;0.20;99.90
35804;DHT22;21924;51.934;7.414;2023-01-29T04:10:54;0.10;99.90
35804;DHT22;21924;51.934;7.414;2023-01-29T04:13:39;0.20;99.90
35804;DHT22;21924;51.934;7.414;2023-01-29T04:16:40;0.10;99.90
35804;DHT22;21924;51.934;7.414;2023-01-29T04:19:25;0.10;99.90
35804;DHT22;21924;51.934;7.414;2023-01-29T04:22:23;0.10;99.90
35804;DHT22;21924;51.934;7.414;2023-01-29T04:25:13;0.20;99.90
35804;DHT22;21924;51.934;7.414;2023-01-29T04:28:14;0.20;99.90
35804;DHT22;21924;51.934;7.414;2023-01-29T04:31:05;0.10;99.90
35804;DHT22;21924;51.934;7.414;2023-01-29T04:37:06;0.20;99.90
35804;DHT22;21924;51.934;7.414;2023-01-29T04:40:19;0.20;99.90
35804;DHT22;21924;51.934;7.414;2023-01-29T04:43:41;0.20;99.90
35804;DHT22;21924;51.934;7.414;2023-01-29T04:46:48;0.20;99.90
35804;DHT22;21924;51.934;7.414;2023-01-29T04:49:52;0.20;99.90
35804;DHT22;21924;51.934;7.414;2023-01-29T04:55:49;0.20;99.90
35804;DHT22;21924;51.934;7.414;2023-01-29T04:58:41;0.20;99.90
35804;DHT22;21924;51.934;7.414;2023-01-29T05:01:29;0.20;99.90
35804;DHT22;21924;51.934;7.414;2023-01-29T05:04:18;0.20;99.90
35804;DHT22;21924;51.934;7.414;2023-01-29T05:07:06;0.20;99.90
35804;DHT22;21924;51.934;7.414;2023-01-29T05:09:52;0.10;99.90
35804;DHT22;21924;51.934;7.414;2023-01-29T05:12:37;0.20;99.90
35804;DHT22;21924;51.934;7.414;2023-01-29T05:15:29;0.20;99.90
35804;DHT22;21924;51.934;7.414;2023-01-29T05:18:17;0.10;99.90
35804;DHT22;21924;51.934;7.414;2023-01-29T05:21:04;0.20;99.90
35804;DHT22;21924;51.934;7.414;2023-01-29T05:24:26;0.20;99.90
35804;DHT22;21924;51.934;7.414;2023-01-29T05:27:34;0.20;99.90
35804;DHT22;21924;51.934;7.414;2023-01-29T05:30:39;0.20;99.90
35804;DHT22;21924;51.934;7.414;2023-01-29T05:33:26;0.20;99.90
35804;DHT22;21924;51.934;7.414;2023-01-29T05:36:11;0.20;99.90
35804;DHT22;21924;51.934;7.414;2023-01-29T05:38:55;0.10;99.90
35804;DHT22;21924;51.934;7.414;2023-01-29T05:41:39;0.10;99.90
35804;DHT22;21924;51.934;7.414;2023-01-29T05:44:23;0.20;99.90
35804;DHT22;21924;51.934;7.414;2023-01-29T05:47:09;0.10;99.90
35804;DHT22;21924;51.934;7.414;2023-01-29T05:49:53;0.20;99.90
35804;DHT22;21924;51.934;7.414;2023-01-29T05:52:38;0.20;99.90
35804;DHT22;21924;51.934;7.414;2023-01-29T05:55:23;0.20;99.90
35804;DHT22;21924;51.934;7.414;2023-01-29T05:58:07;0.20;99.90
35804;DHT22;21924;51.934;7.414;2023-01-29T06:00:53;0.20;99.90
35804;DHT22;21924;51.934;7.414;2023-01-29T06:03:37;0.20;99.90
35804;DHT22;21924;51.934;7.414;2023-01-29T06:06:21;0.20;99.90
35804;DHT22;21924;51.934;7.414;2023-01-29T06:09:06;0.30;99.90
35804;DHT22;21924;51.934;7.414;2023-01-29T06:11:50;0.20;99.90
35804;DHT22;21924;51.934;7.414;2023-01-29T06:14:34;0.30;99.90
35804;DHT22;21924;51.934;7.414;2023-01-29T06:17:19;0.30;99.90
35804;DHT22;21924;51.934;7.414;2023-01-29T06:20:05;0.30;99.90
35804;DHT22;21924;51.934;7.414;2023-01-29T06:22:50;0.30;99.90
35804;DHT22;21924;51.934;7.414;2023-01-29T06:25:35;0.30;99.90
35804;DHT22;21924;51.934;7.414;2023-01-29T06:28:19;0.30;99.90
35804;DHT22;21924;51.934;7.414;2023-01-29T06:31:04;0.40;99.90
35804;DHT22;21924;51.934;7.414;2023-01-29T06:33:48;0.30;99.90
35804;DHT22;21924;51.934;7.414;2023-01-29T06:36:33;0.50;99.90
35804;DHT22;21924;51.934;7.414;2023-01-29T06:39:17;0.30;99.90
35804;DHT22;21924;51.934;7.414;2023-01-29T06:42:03;0.40;99.90
35804;DHT22;21924;51.934;7.414;2023-01-29T06:44:47;0.40;99.90
35804;DHT22;21924;51.934;7.414;2023-01-29T06:47:32;0.40;99.90
35804;DHT22;21924;51.934;7.414;2023-01-29T06:50:16;0.40;99.90
35804;DHT22;21924;51.934;7.414;2023-01-29T06:53:00;0.40;99.90
35804;DHT22;21924;51.934;7.414;2023-01-29T06:55:51;0.40;99.90
35804;DHT22;21924;51.934;7.414;2023-01-29T06:58:37;0.30;99.90
35804;DHT22;21924;51.934;7.414;2023-01-29T07:01:23;0.30;99.90
35804;DHT22;21924;51.934;7.414;2023-01-29T07:04:08;0.40;99.90
35804;DHT22;21924;51.934;7.414;2023-01-29T07:06:52;0.30;99.90
35804;DHT22;21924;51.934;7.414;2023-01-29T07:09:42;0.30;99.90
35804;DHT22;21924;51.934;7.414;2023-01-29T07:12:27;0.40;99.90
35804;DHT22;21924;51.934;7.414;2023-01-29T07:15:12;0.30;99.90
35804;DHT22;21924;51.934;7.414;2023-01-29T07:18:02;0.40;99.90
35804;DHT22;21924;51.934;7.414;2023-01-29T07:20:55;0.30;99.90
35804;DHT22;21924;51.934;7.414;2023-01-29T07:23:41;0.30;99.90
35804;DHT22;21924;51.934;7.414;2023-01-29T07:26:25;0.40;99.90
35804;DHT22;21924;51.934;7.414;2023-01-29T07:29:11;0.40;99.90
35804;DHT22;21924;51.934;7.414;2023-01-29T07:31:55;0.40;99.90
35804;DHT22;21924;51.934;7.414;2023-01-29T07:34:44;0.40;99.90
35804;DHT22;21924;51.934;7.414;2023-01-29T07:37:28;0.40;99.90
35804;DHT22;21924;51.934;7.414;2023-01-29T07:40:12;0.40;99.90
35804;DHT22;21924;51.934;7.414;2023-01-29T07:42:59;0.40;99.90
35804;DHT22;21924;51.934;7.414;2023-01-29T07:45:44;0.40;99.90
35804;DHT22;21924;51.934;7.414;2023-01-29T07:48:30;0.40;99.90
35804;DHT22;21924;51.934;7.414;2023-01-29T07:51:14;0.40;99.90
35804;DHT22;21924;51.934;7.414;2023-01-29T07:54:03;0.50;99.90
35804;DHT22;21924;51.934;7.414;2023-01-29T07:56:48;0.40;99.90
35804;DHT22;21924;51.934;7.414;2023-01-29T07:59:33;0.50;99.90
35804;DHT22;21924;51.934;7.414;2023-01-29T08:02:17;0.50;99.90
35804;DHT22;21924;51.934;7.414;2023-01-29T08:05:01;0.50;99.90
35804;DHT22;21924;51.934;7.414;2023-01-29T08:07:49;0.50;99.90
35804;DHT22;21924;51.934;7.414;2023-01-29T08:10:35;0.50;99.90
35804;DHT22;21924;51.934;7.414;2023-01-29T08:13:20;0.50;99.90
35804;DHT22;21924;51.934;7.414;2023-01-29T08:16:04;0.50;99.90
35804;DHT22;21924;51.934;7.414;2023-01-29T08:18:49;0.50;99.90
35804;DHT22;21924;51.934;7.414;2023-01-29T08:21:33;0.50;99.90
35804;DHT22;21924;51.934;7.414;2023-01-29T08:24:18;0.50;99.90
35804;DHT22;21924;51.934;7.414;2023-01-29T08:27:03;0.60;99.90
35804;DHT22;21924;51.934;7.414;2023-01-29T08:29:48;0.50;99.90
35804;DHT22;21924;51.934;7.414;2023-01-29T08:32:32;0.50;99.90
35804;DHT22;21924;51.934;7.414;2023-01-29T08:35:16;0.50;99.90
35804;DHT22;21924;51.934;7.414;2023-01-29T08:38:02;0.60;99.90
35804;DHT22;21924;51.934;7.414;2023-01-29T08:40:46;0.60;99.90
35804;DHT22;21924;51.934;7.414;2023-01-29T08:43:30;0.70;99.90
35804;DHT22;21924;51.934;7.414;2023-01-29T08:46:16;0.70;99.90
35804;DHT22;21924;51.934;7.414;2023-01-29T08:49:00;0.70;99.90
35804;DHT22;21924;51.934;7.414;2023-01-29T08:51:44;0.80;99.90
35804;DHT22;21924;51.934;7.414;2023-01-29T08:54:29;0.80;99.90
35804;DHT22;21924;51.934;7.414;2023-01-29T08:57:14;0.80;99.90
35804;DHT22;21924;51.934;7.414;2023-01-29T08:59:58;0.90;99.90
35804;DHT22;21924;51.934;7.414;2023-01-29T09:02:42;0.90;99.90
35804;DHT22;21924;51.934;7.414;2023-01-29T09:05:28;1.10;99.90
35804;DHT22;21924;51.934;7.414;2023-01-29T09:08:14;1.10;99.90
35804;DHT22;21924;51.934;7.414;2023-01-29T09:10:58;1.10;99.90
35804;DHT22;21924;51.934;7.414;2023-01-29T09:13:43;1.20;99.90
35804;DHT22;21924;51.934;7.414;2023-01-29T09:16:27;1.20;99.90
35804;DHT22;21924;51.934;7.414;2023-01-29T09:19:12;1.20;99.90
35804;DHT22;21924;51.934;7.414;2023-01-29T09:21:57;1.10;99.90
35804;DHT22;21924;51.934;7.414;2023-01-29T09:24:41;1.20;99.90
35804;DHT22;21924;51.934;7.414;2023-01-29T09:27:26;1.20;99.90
35804;DHT22;21924;51.934;7.414;2023-01-29T09:30:10;1.20;99.90
35804;DHT22;21924;51.934;7.414;2023-01-29T09:32:55;1.10;99.90
35804;DHT22;21924;51.934;7.414;2023-01-29T09:35:40;1.10;99.90
35804;DHT22;21924;51.934;7.414;2023-01-29T09:38:26;1.20;99.90
35804;DHT22;21924;51.934;7.414;2023-01-29T09:41:34;1.20;99.90
35804;DHT22;21924;51.934;7.414;2023-01-29T09:47:33;1.20;99.90
35804;DHT22;21924;51.934;7.414;2023-01-29T09:50:35;1.20;99.90
35804;DHT22;21924;51.934;7.414;2023-01-29T09:53:45;1.30;99.90
35804;DHT22;21924;51.934;7.414;2023-01-29T09:56:34;1.40;99.90
35804;DHT22;21924;51.934;7.414;2023-01-29T09:59:20;1.40;99.90
35804;DHT22;21924;51.934;7.414;2023-01-29T10:02:26;1.40;99.90
35804;DHT22;21924;51.934;7.414;2023-01-29T10:08:33;1.40;99.90
35804;DHT22;21924;51.934;7.414;2023-01-29T10:11:35;1.40;99.90
35804;DHT22;21924;51.934;7.414;2023-01-29T10:24:35;1.50;99.90
35804;DHT22;21924;51.934;7.414;2023-01-29T10:27:21;1.60;99.90
35804;DHT22;21924;51.934;7.414;2023-01-29T10:33:24;1.60;99.90
35804;DHT22;21924;51.934;7.414;2023-01-29T10:36:21;1.70;99.90
35804;DHT22;21924;51.934;7.414;2023-01-29T10:39:10;1.70;99.90
35804;DHT22;21924;51.934;7.414;2023-01-29T10:43:01;1.70;99.90
35804;DHT22;21924;51.934;7.414;2023-01-29T10:56:13;1.70;99.90
35804;DHT22;21924;51.934;7.414;2023-01-29T10:59:12;1.80;99.90
35804;DHT22;21924;51.934;7.414;2023-01-29T11:02:19;1.80;99.90
35804;DHT22;21924;51.934;7.414;2023-01-29T11:05:26;1.90;99.90
35804;DHT22;21924;51.934;7.414;2023-01-29T11:08:17;1.90;99.90
35804;DHT22;21924;51.934;7.414;2023-01-29T11:11:13;2.00;99.90
35804;DHT22;21924;51.934;7.414;2023-01-29T11:14:05;1.90;99.90
35804;DHT22;21924;51.934;7.414;2023-01-29T11:17:19;1.90;99.90
35804;DHT22;21924;51.934;7.414;2023-01-29T11:38:28;2.00;99.90
35804;DHT22;21924;51.934;7.414;2023-01-29T11:41:16;1.90;99.90
35804;DHT22;21924;51.934;7.414;2023-01-29T11:47:28;1.90;99.90
35804;DHT22;21924;51.934;7.414;2023-01-29T11:50:20;2.00;99.90
35804;DHT22;21924;51.934;7.414;2023-01-29T11:53:06;1.90;99.90
35804;DHT22;21924;51.934;7.414;2023-01-29T11:56:34;1.90;99.90
35804;DHT22;21924;51.934;7.414;2023-01-29T11:59:31;2.00;99.90
35804;DHT22;21924;51.934;7.414;2023-01-29T12:08:59;2.00;99.90
35804;DHT22;21924;51.934;7.414;2023-01-29T12:12:26;2.10;99.90
35804;DHT22;21924;51.934;7.414;2023-01-29T12:15:35;2.10;99.90
35804;DHT22;21924;51.934;7.414;2023-01-29T12:18:43;2.10;99.90
35804;DHT22;21924;51.934;7.414;2023-01-29T12:22:19;2.20;99.90
35804;DHT22;21924;51.934;7.414;2023-01-29T12:26:17;2.30;99.90
35804;DHT22;21924;51.934;7.414;2023-01-29T12:32:52;2.30;99.90
35804;DHT22;21924;51.934;7.414;2023-01-29T12:50:34;2.40;99.90
35804;DHT22;21924;51.934;7.414;2023-01-29T12:56:58;2.40;99.90
35804;DHT22;21924;51.934;7.414;2023-01-29T12:59:51;2.50;99.90
35804;DHT22;21924;51.934;7.414;2023-01-29T13:03:07;2.40;99.90
35804;DHT22;21924;51.934;7.414;2023-01-29T13:06:09;2.50;99.90
35804;DHT22;21924;51.934;7.414;2023-01-29T13:08:57;2.40;99.90
35804;DHT22;21924;51.934;7.414;2023-01-29T13:12:30;2.50;99.90
35804;DHT22;21924;51.934;7.414;2023-01-29T13:16:05;2.50;99.90
35804;DHT22;21924;51.934;7.414;2023-01-29T13:18:56;2.50;99.90
35804;DHT22;21924;51.934;7.414;2023-01-29T13:21:41;2.50;99.90
35804;DHT22;21924;51.934;7.414;2023-01-29T13:31:37;2.30;99.90
35804;DHT22;21924;51.934;7.414;2023-01-29T13:38:30;2.30;99.90
35804;DHT22;21924;51.934;7.414;2023-01-29T13:41:17;2.30;99.90
35804;DHT22;21924;51.934;7.414;2023-01-29T13:44:03;2.20;99.90
35804;DHT22;21924;51.934;7.414;2023-01-29T14:15:27;2.20;99.90
35804;DHT22;21924;51.934;7.414;2023-01-29T14:19:02;2.10;99.90
35804;DHT22;21924;51.934;7.414;2023-01-29T14:21:49;2.10;99.90
35804;DHT22;21924;51.934;7.414;2023-01-29T15:09:23;2.00;99.90
35804;DHT22;21924;51.934;7.414;2023-01-29T15:39:29;1.90;99.90
35804;DHT22;21924;51.934;7.414;2023-01-29T15:42:45;1.90;99.90
35804;DHT22;21924;51.934;7.414;2023-01-29T15:46:32;1.80;99.90
35804;DHT22;21924;51.934;7.414;2023-01-29T15:49:39;1.90;99.90
35804;DHT22;21924;51.934;7.414;2023-01-29T15:53:21;1.80;99.90
35804;DHT22;21924;51.934;7.414;2023-01-29T15:56:23;1.80;99.90
35804;DHT22;21924;51.934;7.414;2023-01-29T15:59:36;1.80;99.90
35804;DHT22;21924;51.934;7.414;2023-01-29T16:06:34;1.80;99.90
35804;DHT22;21924;51.934;7.414;2023-01-29T16:13:23;1.80;99.90
35804;DHT22;21924;51.934;7.414;2023-01-29T16:53:20;1.90;99.90
35804;DHT22;21924;51.934;7.414;2023-01-29T18:17:22;2.10;99.90
35804;DHT22;21924;51.934;7.414;2023-01-29T18:39:11;2.00;99.90
35804;DHT22;21924;51.934;7.414;2023-01-29T18:42:24;2.00;99.90
35804;DHT22;21924;51.934;7.414;2023-01-29T18:45:42;2.00;99.90
35804;DHT22;21924;51.934;7.414;2023-01-29T18:52:23;1.90;99.90
35804;DHT22;21924;51.934;7.414;2023-01-29T18:55:07;1.90;99.90
35804;DHT22;21924;51.934;7.414;2023-01-29T18:58:24;1.90;99.90
35804;DHT22;21924;51.934;7.414;2023-01-29T19:04:55;1.80;99.90
35804;DHT22;21924;51.934;7.414;2023-01-29T19:11:23;1.80;99.90
35804;DHT22;21924;51.934;7.414;2023-01-29T19:14:23;1.80;99.90
35804;DHT22;21924;51.934;7.414;2023-01-29T19:32:23;1.80;99.90
35804;DHT22;21924;51.934;7.414;2023-01-29T19:35:24;1.80;99.90
35804;DHT22;21924;51.934;7.414;2023-01-29T19:38:27;1.80;99.90
35804;DHT22;21924;51.934;7.414;2023-01-29T19:49:08;1.80;99.90
35804;DHT22;21924;51.934;7.414;2023-01-29T19:56:19;1.80;99.90
35804;DHT22;21924;51.934;7.414;2023-01-29T20:02:44;1.80;99.90
35804;DHT22;21924;51.934;7.414;2023-01-29T20:05:28;1.90;99.90
35804;DHT22;21924;51.934;7.414;2023-01-29T20:11:36;1.90;99.90
35804;DHT22;21924;51.934;7.414;2023-01-29T20:14:21;1.90;99.90
35804;DHT22;21924;51.934;7.414;2023-01-29T20:17:07;1.90;99.90
35804;DHT22;21924;51.934;7.414;2023-01-29T20:19:51;2.00;99.90
35804;DHT22;21924;51.934;7.414;2023-01-29T20:22:57;2.00;99.90
35804;DHT22;21924;51.934;7.414;2023-01-29T20:26:24;2.00;99.90
35804;DHT22;21924;51.934;7.414;2023-01-29T20:29:15;2.00;99.90
35804;DHT22;21924;51.934;7.414;2023-01-29T20:39:26;2.10;99.90
35804;DHT22;21924;51.934;7.414;2023-01-29T20:42:11;2.20;99.90
35804;DHT22;21924;51.934;7.414;2023-01-29T20:52:20;2.20;99.90
35804;DHT22;21924;51.934;7.414;2023-01-29T20:55:24;2.30;99.90
35804;DHT22;21924;51.934;7.414;2023-01-29T21:02:02;2.30;99.90
35804;DHT22;21924;51.934;7.414;2023-01-29T21:08:26;2.40;99.90
35804;DHT22;21924;51.934;7.414;2023-01-29T21:11:10;2.40;99.90
35804;DHT22;21924;51.934;7.414;2023-01-29T21:13:55;2.40;99.90
35804;DHT22;21924;51.934;7.414;2023-01-29T21:20:27;2.40;99.90
35804;DHT22;21924;51.934;7.414;2023-01-29T21:23:11;2.50;99.90
35804;DHT22;21924;51.934;7.414;2023-01-29T21:26:03;2.50;99.90
35804;DHT22;21924;51.934;7.414;2023-01-29T21:32:28;2.50;99.90
35804;DHT22;21924;51.934;7.414;2023-01-29T21:35:12;2.50;99.90
35804;DHT22;21924;51.934;7.414;2023-01-29T21:37:58;2.60;99.90
35804;DHT22;21924;51.934;7.414;2023-01-29T21:40:43;2.60;99.90
35804;DHT22;21924;51.934;7.414;2023-01-29T21:43:37;2.60;99.90
35804;DHT22;21924;51.934;7.414;2023-01-29T21:46:22;2.60;99.90
35804;DHT22;21924;51.934;7.414;2023-01-29T21:49:06;2.70;99.90
35804;DHT22;21924;51.934;7.414;2023-01-29T21:51:51;2.70;99.90
35804;DHT22;21924;51.934;7.414;2023-01-29T21:54:36;2.70;99.90
35804;DHT22;21924;51.934;7.414;2023-01-29T22:09:03;2.70;99.90
35804;DHT22;21924;51.934;7.414;2023-01-29T22:11:47;2.70;99.90
35804;DHT22;21924;51.934;7.414;2023-01-29T22:18:30;2.70;99.90
35804;DHT22;21924;51.934;7.414;2023-01-29T22:24:55;2.70;99.90
35804;DHT22;21924;51.934;7.414;2023-01-29T22:31:27;2.80;99.90
35804;DHT22;21924;51.934;7.414;2023-01-29T22:34:28;2.80;99.90
35804;DHT22;21924;51.934;7.414;2023-01-29T22:37:14;2.80;99.90
35804;DHT22;21924;51.934;7.414;2023-01-29T22:39:59;2.80;99.90
35804;DHT22;21924;51.934;7.414;2023-01-29T22:42:44;2.80;99.90
35804;DHT22;21924;51.934;7.414;2023-01-29T22:45:41;2.80;99.90
35804;DHT22;21924;51.934;7.414;2023-01-29T22:48:28;2.80;99.90
35804;DHT22;21924;51.934;7.414;2023-01-29T22:52:01;2.80;99.90
35804;DHT22;21924;51.934;7.414;2023-01-29T22:55:12;2.90;99.90
35804;DHT22;21924;51.934;7.414;2023-01-29T22:58:28;2.90;99.90
35804;DHT22;21924;51.934;7.414;2023-01-29T23:04:59;2.90;99.90
35804;DHT22;21924;51.934;7.414;2023-01-29T23:07:44;2.90;99.90
35804;DHT22;21924;51.934;7.414;2023-01-29T23:10:30;2.90;99.90
35804;DHT22;21924;51.934;7.414;2023-01-29T23:13:14;2.90;99.90
35804;DHT22;21924;51.934;7.414;2023-01-29T23:15:58;2.90;99.90
35804;DHT22;21924;51.934;7.414;2023-01-29T23:18:43;3.00;99.90
35804;DHT22;21924;51.934;7.414;2023-01-29T23:21:28;3.00;99.90
35804;DHT22;21924;51.934;7.414;2023-01-29T23:24:12;3.00;99.90
35804;DHT22;21924;51.934;7.414;2023-01-29T23:26:57;3.00;99.90
35804;DHT22;21924;51.934;7.414;2023-01-29T23:29:59;3.00;99.90
35804;DHT22;21924;51.934;7.414;2023-01-29T23:32:49;3.10;99.90
35804;DHT22;21924;51.934;7.414;2023-01-29T23:35:39;3.10;99.90
35804;DHT22;21924;51.934;7.414;2023-01-29T23:38:29;3.10;99.90
35804;DHT22;21924;51.934;7.414;2023-01-29T23:41:20;3.10;99.90
35804;DHT22;21924;51.934;7.414;2023-01-29T23:44:04;3.10;99.90
35804;DHT22;21924;51.934;7.414;2023-01-29T23:47:26;3.10;99.90
35804;DHT22;21924;51.934;7.414;2023-01-29T23:50:15;3.10;99.90
35804;DHT22;21924;51.934;7.414;2023-01-29T23:53:28;3.10;99.90
35804;DHT22;21924;51.934;7.414;2023-01-29T23:56:24;3.20;99.90
35804;DHT22;21924;51.934;7.414;2023-01-29T23:59:18;3.20;99.90
